logo
Search for airport 
image banner adimage banner adimage banner ad
image banner ad

EYMO - Moletai

Located in Moletai, Lithuania

ICAO - EYMO, IATA -

Data provided by Airmate  

General information

Coordinates: N55°6'46" E25°20'11"
Elevation is 653 feet MSL.
Magnetic variation is 7° East
View others Airports in Utena County

Operational data

Special qualification required
Current time UTC:
Current local time:
Weather at : EYVI - Vilnius/International ( 53 km )
METAR: EYVI 140220Z 19007KT 9999 FEW024 09/08 Q1012 NOSIG
TAF: TAF EYVI 132318Z 1400/1424 VRB05KT 7000 SCT010 BKN015 TEMPO 1400/1406 3000 BR BKN005 TEMPO 1407/1410 22015G25KT 3000 SHRA BKN005 BKN015CB PROB40 TEMPO 1407/1410 TS BECMG 1410/1411 27020G35KT BKN025
View NOTAMs / SUP AIP / TFR affecting this airport [VIEW]
Communications frequencies: [VIEW]

Runways:

RWY identifierQFULength (ft)Width (ft)SurfaceLDA (ft)
0669°147666CONC+ASPH
24249°147666CONC+ASPH

Airport contact information

Address: Moletai Lithuania

Satellite view of EYMO